sensor_id;sensor_type;location;lat;lon;timestamp;P1;durP1;ratioP1;P2;durP2;ratioP2
22780;SDS011;11557;50.884;4.322;2023-04-21T00:00:54;15.48;;;13.88;;
22780;SDS011;11557;50.884;4.322;2023-04-21T00:03:20;15.05;;;13.50;;
22780;SDS011;11557;50.884;4.322;2023-04-21T00:05:48;18.33;;;14.27;;
22780;SDS011;11557;50.884;4.322;2023-04-21T00:08:14;14.55;;;13.05;;
22780;SDS011;11557;50.884;4.322;2023-04-21T00:10:41;20.13;;;13.52;;
22780;SDS011;11557;50.884;4.322;2023-04-21T00:13:06;17.55;;;14.35;;
22780;SDS011;11557;50.884;4.322;2023-04-21T00:15:32;17.92;;;14.52;;
22780;SDS011;11557;50.884;4.322;2023-04-21T00:17:58;15.23;;;13.65;;
22780;SDS011;11557;50.884;4.322;2023-04-21T00:20:24;15.98;;;14.38;;
22780;SDS011;11557;50.884;4.322;2023-04-21T00:22:53;18.13;;;14.30;;
22780;SDS011;11557;50.884;4.322;2023-04-21T00:25:20;16.10;;;13.90;;
22780;SDS011;11557;50.884;4.322;2023-04-21T00:27:46;15.65;;;14.05;;
22780;SDS011;11557;50.884;4.322;2023-04-21T00:30:12;16.08;;;14.38;;
22780;SDS011;11557;50.884;4.322;2023-04-21T00:32:37;14.77;;;13.27;;
22780;SDS011;11557;50.884;4.322;2023-04-21T00:35:04;14.75;;;13.25;;
22780;SDS011;11557;50.884;4.322;2023-04-21T00:37:29;15.30;;;13.60;;
22780;SDS011;11557;50.884;4.322;2023-04-21T00:39:55;15.43;;;13.82;;
22780;SDS011;11557;50.884;4.322;2023-04-21T00:42:22;15.43;;;13.45;;
22780;SDS011;11557;50.884;4.322;2023-04-21T00:44:48;16.30;;;14.00;;
22780;SDS011;11557;50.884;4.322;2023-04-21T00:47:14;15.60;;;13.82;;
22780;SDS011;11557;50.884;4.322;2023-04-21T00:49:41;15.52;;;13.93;;
22780;SDS011;11557;50.884;4.322;2023-04-21T00:52:07;14.90;;;13.40;;
22780;SDS011;11557;50.884;4.322;2023-04-21T00:54:34;16.17;;;14.48;;
22780;SDS011;11557;50.884;4.322;2023-04-21T00:57:00;15.93;;;14.23;;
22780;SDS011;11557;50.884;4.322;2023-04-21T00:59:27;15.48;;;13.98;;
22780;SDS011;11557;50.884;4.322;2023-04-21T01:01:53;17.17;;;15.45;;
22780;SDS011;11557;50.884;4.322;2023-04-21T01:04:19;17.00;;;15.27;;
22780;SDS011;11557;50.884;4.322;2023-04-21T01:06:45;19.33;;;16.75;;
22780;SDS011;11557;50.884;4.322;2023-04-21T01:09:12;19.27;;;17.25;;
22780;SDS011;11557;50.884;4.322;2023-04-21T01:11:38;22.48;;;18.30;;
22780;SDS011;11557;50.884;4.322;2023-04-21T01:14:04;20.25;;;18.25;;
22780;SDS011;11557;50.884;4.322;2023-04-21T01:16:31;20.77;;;18.73;;
22780;SDS011;11557;50.884;4.322;2023-04-21T01:18:57;22.48;;;20.23;;
22780;SDS011;11557;50.884;4.322;2023-04-21T01:21:24;22.77;;;20.48;;
22780;SDS011;11557;50.884;4.322;2023-04-21T01:23:51;23.58;;;21.08;;
22780;SDS011;11557;50.884;4.322;2023-04-21T01:26:18;24.73;;;22.25;;
22780;SDS011;11557;50.884;4.322;2023-04-21T01:28:45;23.38;;;21.00;;
22780;SDS011;11557;50.884;4.322;2023-04-21T01:31:12;25.88;;;23.20;;
22780;SDS011;11557;50.884;4.322;2023-04-21T01:33:41;26.27;;;23.55;;
22780;SDS011;11557;50.884;4.322;2023-04-21T01:36:08;25.65;;;23.00;;
22780;SDS011;11557;50.884;4.322;2023-04-21T01:38:36;29.75;;;24.58;;
22780;SDS011;11557;50.884;4.322;2023-04-21T01:41:03;27.40;;;24.60;;
22780;SDS011;11557;50.884;4.322;2023-04-21T01:43:29;27.50;;;24.50;;
22780;SDS011;11557;50.884;4.322;2023-04-21T01:45:55;28.17;;;25.17;;
22780;SDS011;11557;50.884;4.322;2023-04-21T01:48:21;28.08;;;25.08;;
22780;SDS011;11557;50.884;4.322;2023-04-21T01:50:46;28.88;;;25.88;;
22780;SDS011;11557;50.884;4.322;2023-04-21T01:53:12;31.05;;;27.65;;
22780;SDS011;11557;50.884;4.322;2023-04-21T01:55:37;31.33;;;27.02;;
22780;SDS011;11557;50.884;4.322;2023-04-21T01:58:03;31.75;;;28.48;;
22780;SDS011;11557;50.884;4.322;2023-04-21T02:00:29;30.40;;;27.20;;
22780;SDS011;11557;50.884;4.322;2023-04-21T02:02:55;30.35;;;27.08;;
22780;SDS011;11557;50.884;4.322;2023-04-21T02:05:21;31.45;;;28.15;;
22780;SDS011;11557;50.884;4.322;2023-04-21T02:07:46;32.22;;;28.42;;
22780;SDS011;11557;50.884;4.322;2023-04-21T02:10:12;30.60;;;27.48;;
22780;SDS011;11557;50.884;4.322;2023-04-21T02:12:38;32.08;;;28.60;;
22780;SDS011;11557;50.884;4.322;2023-04-21T02:15:04;33.90;;;29.42;;
22780;SDS011;11557;50.884;4.322;2023-04-21T02:17:30;32.80;;;29.40;;
22780;SDS011;11557;50.884;4.322;2023-04-21T02:19:56;33.55;;;29.95;;
22780;SDS011;11557;50.884;4.322;2023-04-21T02:22:22;36.60;;;31.85;;
22780;SDS011;11557;50.884;4.322;2023-04-21T02:24:48;36.15;;;32.05;;
22780;SDS011;11557;50.884;4.322;2023-04-21T02:27:14;37.47;;;33.35;;
22780;SDS011;11557;50.884;4.322;2023-04-21T02:29:40;37.17;;;33.13;;
22780;SDS011;11557;50.884;4.322;2023-04-21T02:32:05;39.53;;;34.33;;
22780;SDS011;11557;50.884;4.322;2023-04-21T02:34:31;40.75;;;35.35;;
22780;SDS011;11557;50.884;4.322;2023-04-21T02:36:58;38.55;;;33.85;;
22780;SDS011;11557;50.884;4.322;2023-04-21T02:39:24;39.70;;;35.22;;
22780;SDS011;11557;50.884;4.322;2023-04-21T02:41:49;40.72;;;35.10;;
22780;SDS011;11557;50.884;4.322;2023-04-21T02:44:15;40.35;;;35.95;;
22780;SDS011;11557;50.884;4.322;2023-04-21T02:46:41;41.08;;;35.17;;
22780;SDS011;11557;50.884;4.322;2023-04-21T02:49:07;42.50;;;36.53;;
22780;SDS011;11557;50.884;4.322;2023-04-21T02:51:33;43.13;;;38.38;;
22780;SDS011;11557;50.884;4.322;2023-04-21T02:53:59;43.67;;;37.75;;
22780;SDS011;11557;50.884;4.322;2023-04-21T02:56:25;42.15;;;37.55;;
22780;SDS011;11557;50.884;4.322;2023-04-21T02:58:51;43.58;;;38.40;;
22780;SDS011;11557;50.884;4.322;2023-04-21T03:01:16;44.60;;;38.35;;
22780;SDS011;11557;50.884;4.322;2023-04-21T03:03:42;41.42;;;36.95;;
22780;SDS011;11557;50.884;4.322;2023-04-21T03:06:08;46.70;;;40.33;;
22780;SDS011;11557;50.884;4.322;2023-04-21T03:08:34;42.97;;;37.28;;
22780;SDS011;11557;50.884;4.322;2023-04-21T03:11:00;41.75;;;37.22;;
22780;SDS011;11557;50.884;4.322;2023-04-21T03:13:25;46.40;;;39.20;;
22780;SDS011;11557;50.884;4.322;2023-04-21T03:15:51;43.97;;;39.20;;
22780;SDS011;11557;50.884;4.322;2023-04-21T03:18:17;44.88;;;39.63;;
22780;SDS011;11557;50.884;4.322;2023-04-21T03:20:43;46.58;;;40.38;;
22780;SDS011;11557;50.884;4.322;2023-04-21T03:23:09;44.88;;;39.13;;
22780;SDS011;11557;50.884;4.322;2023-04-21T03:25:35;50.05;;;41.30;;
22780;SDS011;11557;50.884;4.322;2023-04-21T03:28:02;47.38;;;41.35;;
22780;SDS011;11557;50.884;4.322;2023-04-21T03:30:28;47.28;;;40.15;;
22780;SDS011;11557;50.884;4.322;2023-04-21T03:32:54;46.95;;;40.05;;
22780;SDS011;11557;50.884;4.322;2023-04-21T03:35:20;46.33;;;40.28;;
22780;SDS011;11557;50.884;4.322;2023-04-21T03:37:46;44.47;;;39.38;;
22780;SDS011;11557;50.884;4.322;2023-04-21T03:40:13;49.88;;;42.45;;
22780;SDS011;11557;50.884;4.322;2023-04-21T03:42:39;47.35;;;40.65;;
22780;SDS011;11557;50.884;4.322;2023-04-21T03:45:05;49.30;;;42.47;;
22780;SDS011;11557;50.884;4.322;2023-04-21T03:47:33;47.08;;;41.67;;
22780;SDS011;11557;50.884;4.322;2023-04-21T03:49:59;47.17;;;41.97;;
22780;SDS011;11557;50.884;4.322;2023-04-21T03:52:25;51.42;;;44.85;;
22780;SDS011;11557;50.884;4.322;2023-04-21T03:54:50;48.08;;;42.63;;
22780;SDS011;11557;50.884;4.322;2023-04-21T03:57:16;48.85;;;42.78;;
22780;SDS011;11557;50.884;4.322;2023-04-21T03:59:42;49.78;;;44.25;;
22780;SDS011;11557;50.884;4.322;2023-04-21T04:02:08;50.33;;;43.08;;
22780;SDS011;11557;50.884;4.322;2023-04-21T04:04:34;51.33;;;43.65;;
22780;SDS011;11557;50.884;4.322;2023-04-21T04:07:00;51.20;;;43.80;;
22780;SDS011;11557;50.884;4.322;2023-04-21T04:09:26;51.50;;;44.92;;
22780;SDS011;11557;50.884;4.322;2023-04-21T04:11:52;48.60;;;42.33;;
22780;SDS011;11557;50.884;4.322;2023-04-21T04:14:17;50.15;;;42.63;;
22780;SDS011;11557;50.884;4.322;2023-04-21T04:16:43;50.95;;;44.25;;
22780;SDS011;11557;50.884;4.322;2023-04-21T04:19:09;54.22;;;44.88;;
22780;SDS011;11557;50.884;4.322;2023-04-21T04:21:35;55.20;;;45.72;;
22780;SDS011;11557;50.884;4.322;2023-04-21T04:24:01;51.78;;;43.80;;
22780;SDS011;11557;50.884;4.322;2023-04-21T04:26:29;53.28;;;45.55;;
22780;SDS011;11557;50.884;4.322;2023-04-21T04:28:58;50.55;;;44.42;;
22780;SDS011;11557;50.884;4.322;2023-04-21T04:31:26;54.25;;;46.53;;
22780;SDS011;11557;50.884;4.322;2023-04-21T04:33:54;55.40;;;45.20;;
22780;SDS011;11557;50.884;4.322;2023-04-21T04:36:20;54.22;;;45.58;;
22780;SDS011;11557;50.884;4.322;2023-04-21T04:38:46;54.75;;;45.75;;
22780;SDS011;11557;50.884;4.322;2023-04-21T04:41:12;53.95;;;44.63;;
22780;SDS011;11557;50.884;4.322;2023-04-21T04:43:39;55.50;;;45.45;;
22780;SDS011;11557;50.884;4.322;2023-04-21T04:46:05;57.13;;;45.70;;
22780;SDS011;11557;50.884;4.322;2023-04-21T04:48:33;56.03;;;45.88;;
22780;SDS011;11557;50.884;4.322;2023-04-21T04:50:59;54.05;;;45.08;;
22780;SDS011;11557;50.884;4.322;2023-04-21T04:53:29;54.25;;;44.72;;
22780;SDS011;11557;50.884;4.322;2023-04-21T04:55:55;50.00;;;43.88;;
22780;SDS011;11557;50.884;4.322;2023-04-21T04:58:22;55.67;;;45.20;;
22780;SDS011;11557;50.884;4.322;2023-04-21T05:00:48;55.97;;;45.90;;
22780;SDS011;11557;50.884;4.322;2023-04-21T05:03:14;54.42;;;45.45;;
22780;SDS011;11557;50.884;4.322;2023-04-21T05:05:39;54.33;;;45.72;;
22780;SDS011;11557;50.884;4.322;2023-04-21T05:08:05;58.28;;;46.42;;
22780;SDS011;11557;50.884;4.322;2023-04-21T05:10:31;56.42;;;46.15;;
22780;SDS011;11557;50.884;4.322;2023-04-21T05:12:56;59.33;;;46.05;;
22780;SDS011;11557;50.884;4.322;2023-04-21T05:15:22;56.30;;;46.00;;
22780;SDS011;11557;50.884;4.322;2023-04-21T05:17:48;54.35;;;45.05;;
22780;SDS011;11557;50.884;4.322;2023-04-21T05:20:13;53.97;;;45.35;;
22780;SDS011;11557;50.884;4.322;2023-04-21T05:22:39;52.38;;;44.63;;
22780;SDS011;11557;50.884;4.322;2023-04-21T05:25:05;53.75;;;44.13;;
22780;SDS011;11557;50.884;4.322;2023-04-21T05:27:32;51.67;;;43.53;;
22780;SDS011;11557;50.884;4.322;2023-04-21T05:30:00;54.08;;;41.78;;
22780;SDS011;11557;50.884;4.322;2023-04-21T05:32:26;48.83;;;41.08;;
22780;SDS011;11557;50.884;4.322;2023-04-21T05:34:53;50.92;;;42.00;;
22780;SDS011;11557;50.884;4.322;2023-04-21T05:37:18;48.03;;;39.85;;
22780;SDS011;11557;50.884;4.322;2023-04-21T05:39:44;46.58;;;38.70;;
22780;SDS011;11557;50.884;4.322;2023-04-21T05:42:10;44.33;;;38.72;;
22780;SDS011;11557;50.884;4.322;2023-04-21T05:44:36;40.33;;;35.95;;
22780;SDS011;11557;50.884;4.322;2023-04-21T05:47:05;42.00;;;35.85;;
22780;SDS011;11557;50.884;4.322;2023-04-21T05:49:32;42.70;;;37.10;;
22780;SDS011;11557;50.884;4.322;2023-04-21T05:51:57;40.45;;;34.92;;
22780;SDS011;11557;50.884;4.322;2023-04-21T05:54:23;39.75;;;35.38;;
22780;SDS011;11557;50.884;4.322;2023-04-21T05:56:49;41.08;;;34.88;;
22780;SDS011;11557;50.884;4.322;2023-04-21T05:59:15;37.40;;;33.40;;
22780;SDS011;11557;50.884;4.322;2023-04-21T06:01:41;38.50;;;33.88;;
22780;SDS011;11557;50.884;4.322;2023-04-21T06:04:07;39.40;;;34.65;;
22780;SDS011;11557;50.884;4.322;2023-04-21T06:06:33;37.13;;;32.85;;
22780;SDS011;11557;50.884;4.322;2023-04-21T06:08:59;40.67;;;34.03;;
22780;SDS011;11557;50.884;4.322;2023-04-21T06:11:25;37.25;;;33.20;;
22780;SDS011;11557;50.884;4.322;2023-04-21T06:13:51;40.75;;;33.67;;
22780;SDS011;11557;50.884;4.322;2023-04-21T06:16:18;40.00;;;31.92;;
22780;SDS011;11557;50.884;4.322;2023-04-21T06:18:44;37.65;;;32.47;;
22780;SDS011;11557;50.884;4.322;2023-04-21T06:21:10;35.08;;;31.27;;
22780;SDS011;11557;50.884;4.322;2023-04-21T06:23:36;35.42;;;31.63;;
22780;SDS011;11557;50.884;4.322;2023-04-21T06:26:04;36.72;;;32.08;;
22780;SDS011;11557;50.884;4.322;2023-04-21T06:28:31;37.63;;;30.48;;
22780;SDS011;11557;50.884;4.322;2023-04-21T06:30:58;35.67;;;31.42;;
22780;SDS011;11557;50.884;4.322;2023-04-21T06:33:25;36.90;;;30.67;;
22780;SDS011;11557;50.884;4.322;2023-04-21T06:35:52;33.88;;;30.27;;
22780;SDS011;11557;50.884;4.322;2023-04-21T06:38:18;37.65;;;30.52;;
22780;SDS011;11557;50.884;4.322;2023-04-21T06:40:44;34.33;;;29.67;;
22780;SDS011;11557;50.884;4.322;2023-04-21T06:43:10;32.95;;;28.05;;
22780;SDS011;11557;50.884;4.322;2023-04-21T06:45:35;34.03;;;28.95;;
22780;SDS011;11557;50.884;4.322;2023-04-21T06:48:01;36.00;;;29.08;;
22780;SDS011;11557;50.884;4.322;2023-04-21T06:50:27;33.88;;;29.10;;
22780;SDS011;11557;50.884;4.322;2023-04-21T06:52:53;31.65;;;28.20;;
22780;SDS011;11557;50.884;4.322;2023-04-21T06:55:18;31.08;;;27.73;;
22780;SDS011;11557;50.884;4.322;2023-04-21T06:57:44;33.90;;;28.92;;
22780;SDS011;11557;50.884;4.322;2023-04-21T07:00:10;28.67;;;25.60;;
22780;SDS011;11557;50.884;4.322;2023-04-21T07:02:37;31.85;;;26.25;;
22780;SDS011;11557;50.884;4.322;2023-04-21T07:05:03;29.73;;;26.63;;
22780;SDS011;11557;50.884;4.322;2023-04-21T07:07:29;29.67;;;26.48;;
22780;SDS011;11557;50.884;4.322;2023-04-21T07:09:55;28.75;;;25.75;;
22780;SDS011;11557;50.884;4.322;2023-04-21T07:12:21;28.90;;;25.23;;
22780;SDS011;11557;50.884;4.322;2023-04-21T07:14:47;27.40;;;24.50;;
22780;SDS011;11557;50.884;4.322;2023-04-21T07:17:13;28.73;;;25.48;;
22780;SDS011;11557;50.884;4.322;2023-04-21T07:19:38;28.30;;;23.73;;
22780;SDS011;11557;50.884;4.322;2023-04-21T07:22:04;32.47;;;25.85;;
22780;SDS011;11557;50.884;4.322;2023-04-21T07:24:30;27.88;;;24.90;;
22780;SDS011;11557;50.884;4.322;2023-04-21T07:26:58;26.75;;;23.88;;
22780;SDS011;11557;50.884;4.322;2023-04-21T07:29:24;27.45;;;24.20;;
22780;SDS011;11557;50.884;4.322;2023-04-21T07:31:50;25.95;;;23.23;;
22780;SDS011;11557;50.884;4.322;2023-04-21T07:34:16;25.50;;;22.38;;
22780;SDS011;11557;50.884;4.322;2023-04-21T07:36:41;25.38;;;22.67;;
22780;SDS011;11557;50.884;4.322;2023-04-21T07:39:07;24.60;;;21.95;;
22780;SDS011;11557;50.884;4.322;2023-04-21T07:41:33;22.48;;;20.23;;
22780;SDS011;11557;50.884;4.322;2023-04-21T07:43:59;24.05;;;21.55;;
22780;SDS011;11557;50.884;4.322;2023-04-21T07:46:24;22.65;;;19.80;;
22780;SDS011;11557;50.884;4.322;2023-04-21T07:48:56;21.80;;;19.25;;
22780;SDS011;11557;50.884;4.322;2023-04-21T07:51:22;21.40;;;18.80;;
22780;SDS011;11557;50.884;4.322;2023-04-21T07:53:49;20.17;;;18.05;;
22780;SDS011;11557;50.884;4.322;2023-04-21T07:56:15;21.95;;;19.75;;
22780;SDS011;11557;50.884;4.322;2023-04-21T07:58:41;23.17;;;18.58;;
22780;SDS011;11557;50.884;4.322;2023-04-21T08:01:07;21.42;;;19.05;;
22780;SDS011;11557;50.884;4.322;2023-04-21T08:03:33;20.08;;;18.02;;
22780;SDS011;11557;50.884;4.322;2023-04-21T08:05:58;20.63;;;17.27;;
22780;SDS011;11557;50.884;4.322;2023-04-21T08:08:24;19.88;;;17.77;;
22780;SDS011;11557;50.884;4.322;2023-04-21T08:10:50;20.52;;;16.45;;
22780;SDS011;11557;50.884;4.322;2023-04-21T08:13:16;18.17;;;16.35;;
22780;SDS011;11557;50.884;4.322;2023-04-21T08:15:42;20.05;;;15.82;;
22780;SDS011;11557;50.884;4.322;2023-04-21T08:18:07;15.88;;;14.18;;
22780;SDS011;11557;50.884;4.322;2023-04-21T08:20:33;15.38;;;13.77;;
22780;SDS011;11557;50.884;4.322;2023-04-21T08:22:59;13.80;;;12.40;;
22780;SDS011;11557;50.884;4.322;2023-04-21T08:25:25;13.55;;;12.05;;
22780;SDS011;11557;50.884;4.322;2023-04-21T08:27:50;12.48;;;11.18;;
22780;SDS011;11557;50.884;4.322;2023-04-21T08:30:16;12.05;;;10.95;;
22780;SDS011;11557;50.884;4.322;2023-04-21T08:32:43;10.88;;;9.98;;
22780;SDS011;11557;50.884;4.322;2023-04-21T08:35:09;11.52;;;10.52;;
22780;SDS011;11557;50.884;4.322;2023-04-21T08:37:35;10.85;;;9.85;;
22780;SDS011;11557;50.884;4.322;2023-04-21T08:40:03;11.13;;;10.13;;
22780;SDS011;11557;50.884;4.322;2023-04-21T08:42:29;10.95;;;9.80;;
22780;SDS011;11557;50.884;4.322;2023-04-21T08:44:54;11.05;;;10.05;;
22780;SDS011;11557;50.884;4.322;2023-04-21T08:47:20;11.27;;;10.20;;
22780;SDS011;11557;50.884;4.322;2023-04-21T08:49:48;10.27;;;9.27;;
22780;SDS011;11557;50.884;4.322;2023-04-21T08:52:15;10.55;;;9.35;;
22780;SDS011;11557;50.884;4.322;2023-04-21T08:54:42;9.55;;;8.68;;
22780;SDS011;11557;50.884;4.322;2023-04-21T08:57:08;10.07;;;8.38;;
22780;SDS011;11557;50.884;4.322;2023-04-21T08:59:34;9.73;;;8.70;;
22780;SDS011;11557;50.884;4.322;2023-04-21T09:04:43;10.13;;;9.13;;
22780;SDS011;11557;50.884;4.322;2023-04-21T09:10:03;10.50;;;9.63;;
22780;SDS011;11557;50.884;4.322;2023-04-21T09:12:30;10.98;;;9.25;;
22780;SDS011;11557;50.884;4.322;2023-04-21T09:14:56;10.77;;;9.55;;
22780;SDS011;11557;50.884;4.322;2023-04-21T09:17:26;10.80;;;9.80;;
22780;SDS011;11557;50.884;4.322;2023-04-21T09:20:19;10.07;;;9.13;;
22780;SDS011;11557;50.884;4.322;2023-04-21T09:22:46;11.25;;;10.15;;
22780;SDS011;11557;50.884;4.322;2023-04-21T09:25:15;11.35;;;10.05;;
22780;SDS011;11557;50.884;4.322;2023-04-21T09:27:43;10.65;;;9.75;;
22780;SDS011;11557;50.884;4.322;2023-04-21T09:30:10;10.90;;;9.98;;
22780;SDS011;11557;50.884;4.322;2023-04-21T09:32:37;11.45;;;10.35;;
22780;SDS011;11557;50.884;4.322;2023-04-21T09:35:04;10.75;;;9.20;;
22780;SDS011;11557;50.884;4.322;2023-04-21T09:37:34;10.18;;;9.27;;
22780;SDS011;11557;50.884;4.322;2023-04-21T09:40:02;9.90;;;9.02;;
22780;SDS011;11557;50.884;4.322;2023-04-21T09:42:29;9.57;;;8.68;;
22780;SDS011;11557;50.884;4.322;2023-04-21T09:44:59;10.38;;;9.00;;
22780;SDS011;11557;50.884;4.322;2023-04-21T09:47:27;9.27;;;8.48;;
22780;SDS011;11557;50.884;4.322;2023-04-21T09:49:55;9.88;;;8.93;;
22780;SDS011;11557;50.884;4.322;2023-04-21T09:52:22;9.65;;;8.70;;
22780;SDS011;11557;50.884;4.322;2023-04-21T09:54:51;9.88;;;8.90;;
22780;SDS011;11557;50.884;4.322;2023-04-21T09:57:24;10.05;;;9.05;;
22780;SDS011;11557;50.884;4.322;2023-04-21T09:59:55;10.02;;;9.07;;
22780;SDS011;11557;50.884;4.322;2023-04-21T10:02:57;10.00;;;9.15;;
22780;SDS011;11557;50.884;4.322;2023-04-21T10:05:22;10.23;;;9.20;;
22780;SDS011;11557;50.884;4.322;2023-04-21T10:07:48;9.90;;;8.90;;
22780;SDS011;11557;50.884;4.322;2023-04-21T10:12:47;8.82;;;8.02;;
22780;SDS011;11557;50.884;4.322;2023-04-21T10:15:29;8.57;;;7.78;;
22780;SDS011;11557;50.884;4.322;2023-04-21T10:18:19;8.32;;;7.53;;
22780;SDS011;11557;50.884;4.322;2023-04-21T10:20:50;10.70;;;8.77;;
22780;SDS011;11557;50.884;4.322;2023-04-21T10:23:27;9.63;;;8.63;;
22780;SDS011;11557;50.884;4.322;2023-04-21T10:26:19;12.32;;;9.48;;
22780;SDS011;11557;50.884;4.322;2023-04-21T10:28:46;11.32;;;8.52;;
22780;SDS011;11557;50.884;4.322;2023-04-21T10:31:31;8.32;;;7.60;;
22780;SDS011;11557;50.884;4.322;2023-04-21T10:39:11;8.80;;;7.78;;
22780;SDS011;11557;50.884;4.322;2023-04-21T10:41:56;11.07;;;8.95;;
22780;SDS011;11557;50.884;4.322;2023-04-21T10:44:23;11.80;;;9.00;;
22780;SDS011;11557;50.884;4.322;2023-04-21T10:46:50;9.40;;;8.30;;
22780;SDS011;11557;50.884;4.322;2023-04-21T10:49:26;9.32;;;8.43;;
22780;SDS011;11557;50.884;4.322;2023-04-21T10:54:23;10.50;;;8.07;;
22780;SDS011;11557;50.884;4.322;2023-04-21T10:56:57;10.30;;;8.90;;
22780;SDS011;11557;50.884;4.322;2023-04-21T10:59:23;9.68;;;8.75;;
22780;SDS011;11557;50.884;4.322;2023-04-21T11:01:50;10.65;;;8.93;;
22780;SDS011;11557;50.884;4.322;2023-04-21T11:04:17;8.55;;;7.80;;
22780;SDS011;11557;50.884;4.322;2023-04-21T11:09:37;9.10;;;8.18;;
22780;SDS011;11557;50.884;4.322;2023-04-21T11:12:07;9.93;;;8.32;;
22780;SDS011;11557;50.884;4.322;2023-04-21T11:14:35;9.45;;;7.70;;
22780;SDS011;11557;50.884;4.322;2023-04-21T11:17:02;9.65;;;8.25;;
22780;SDS011;11557;50.884;4.322;2023-04-21T11:19:31;10.38;;;7.75;;
22780;SDS011;11557;50.884;4.322;2023-04-21T11:21:57;10.07;;;8.10;;
22780;SDS011;11557;50.884;4.322;2023-04-21T11:24:23;8.23;;;7.43;;
22780;SDS011;11557;50.884;4.322;2023-04-21T11:26:50;8.65;;;7.75;;
22780;SDS011;11557;50.884;4.322;2023-04-21T11:29:15;8.60;;;7.80;;
22780;SDS011;11557;50.884;4.322;2023-04-21T11:31:43;8.02;;;7.32;;
22780;SDS011;11557;50.884;4.322;2023-04-21T11:34:10;8.43;;;7.63;;
22780;SDS011;11557;50.884;4.322;2023-04-21T11:36:38;8.88;;;8.02;;
22780;SDS011;11557;50.884;4.322;2023-04-21T11:39:05;9.35;;;8.45;;
22780;SDS011;11557;50.884;4.322;2023-04-21T11:41:33;8.90;;;7.22;;
22780;SDS011;11557;50.884;4.322;2023-04-21T11:44:00;10.45;;;9.10;;
22780;SDS011;11557;50.884;4.322;2023-04-21T11:46:26;10.32;;;9.20;;
22780;SDS011;11557;50.884;4.322;2023-04-21T11:49:02;9.77;;;8.77;;
22780;SDS011;11557;50.884;4.322;2023-04-21T11:51:42;10.07;;;9.10;;
22780;SDS011;11557;50.884;4.322;2023-04-21T11:54:10;10.10;;;9.07;;
22780;SDS011;11557;50.884;4.322;2023-04-21T11:56:38;10.50;;;9.07;;
22780;SDS011;11557;50.884;4.322;2023-04-21T11:59:08;10.25;;;9.18;;
22780;SDS011;11557;50.884;4.322;2023-04-21T12:01:44;9.60;;;8.60;;
22780;SDS011;11557;50.884;4.322;2023-04-21T12:04:14;10.50;;;8.95;;
22780;SDS011;11557;50.884;4.322;2023-04-21T12:06:41;9.90;;;8.07;;
22780;SDS011;11557;50.884;4.322;2023-04-21T12:09:08;12.10;;;7.70;;
22780;SDS011;11557;50.884;4.322;2023-04-21T12:11:45;8.15;;;7.35;;
22780;SDS011;11557;50.884;4.322;2023-04-21T12:14:15;7.80;;;6.95;;
22780;SDS011;11557;50.884;4.322;2023-04-21T12:16:50;7.57;;;6.78;;
22780;SDS011;11557;50.884;4.322;2023-04-21T12:19:34;8.15;;;7.35;;
22780;SDS011;11557;50.884;4.322;2023-04-21T12:22:05;9.55;;;7.25;;
22780;SDS011;11557;50.884;4.322;2023-04-21T12:24:32;8.63;;;7.18;;
22780;SDS011;11557;50.884;4.322;2023-04-21T12:26:58;10.73;;;8.13;;
22780;SDS011;11557;50.884;4.322;2023-04-21T12:29:24;10.73;;;6.35;;
22780;SDS011;11557;50.884;4.322;2023-04-21T12:31:49;7.07;;;6.00;;
22780;SDS011;11557;50.884;4.322;2023-04-21T12:34:15;6.95;;;6.20;;
22780;SDS011;11557;50.884;4.322;2023-04-21T12:36:41;8.98;;;6.68;;
22780;SDS011;11557;50.884;4.322;2023-04-21T12:39:07;10.13;;;7.57;;
22780;SDS011;11557;50.884;4.322;2023-04-21T12:41:34;9.27;;;7.70;;
22780;SDS011;11557;50.884;4.322;2023-04-21T12:43:59;9.25;;;6.95;;
22780;SDS011;11557;50.884;4.322;2023-04-21T12:46:25;8.32;;;5.50;;
22780;SDS011;11557;50.884;4.322;2023-04-21T12:48:52;5.47;;;4.65;;
22780;SDS011;11557;50.884;4.322;2023-04-21T12:51:18;7.65;;;5.85;;
22780;SDS011;11557;50.884;4.322;2023-04-21T12:53:43;10.13;;;6.30;;
22780;SDS011;11557;50.884;4.322;2023-04-21T12:56:09;6.53;;;5.57;;
22780;SDS011;11557;50.884;4.322;2023-04-21T12:58:35;8.95;;;7.25;;
22780;SDS011;11557;50.884;4.322;2023-04-21T13:01:01;7.60;;;6.80;;
22780;SDS011;11557;50.884;4.322;2023-04-21T13:03:27;8.52;;;6.50;;
22780;SDS011;11557;50.884;4.322;2023-04-21T13:05:52;7.45;;;6.70;;
22780;SDS011;11557;50.884;4.322;2023-04-21T13:08:19;7.55;;;6.55;;
22780;SDS011;11557;50.884;4.322;2023-04-21T13:10:45;9.95;;;7.57;;
22780;SDS011;11557;50.884;4.322;2023-04-21T13:13:11;8.75;;;7.30;;
22780;SDS011;11557;50.884;4.322;2023-04-21T13:15:36;8.70;;;6.53;;
22780;SDS011;11557;50.884;4.322;2023-04-21T13:18:03;7.53;;;6.15;;
22780;SDS011;11557;50.884;4.322;2023-04-21T13:20:29;7.15;;;6.45;;
22780;SDS011;11557;50.884;4.322;2023-04-21T13:22:55;7.40;;;6.57;;
22780;SDS011;11557;50.884;4.322;2023-04-21T13:25:21;7.57;;;6.72;;
22780;SDS011;11557;50.884;4.322;2023-04-21T13:27:46;7.15;;;6.45;;
22780;SDS011;11557;50.884;4.322;2023-04-21T13:30:12;9.70;;;7.28;;
22780;SDS011;11557;50.884;4.322;2023-04-21T13:32:38;9.75;;;6.85;;
22780;SDS011;11557;50.884;4.322;2023-04-21T13:35:05;9.63;;;6.65;;
22780;SDS011;11557;50.884;4.322;2023-04-21T13:37:34;7.13;;;6.28;;
22780;SDS011;11557;50.884;4.322;2023-04-21T13:40:01;11.75;;;6.82;;
22780;SDS011;11557;50.884;4.322;2023-04-21T13:42:28;11.82;;;7.28;;
22780;SDS011;11557;50.884;4.322;2023-04-21T13:44:54;7.35;;;6.53;;
22780;SDS011;11557;50.884;4.322;2023-04-21T13:47:20;7.95;;;7.15;;
22780;SDS011;11557;50.884;4.322;2023-04-21T13:49:48;7.30;;;6.60;;
22780;SDS011;11557;50.884;4.322;2023-04-21T13:52:15;8.25;;;6.22;;
22780;SDS011;11557;50.884;4.322;2023-04-21T13:54:41;7.57;;;6.88;;
22780;SDS011;11557;50.884;4.322;2023-04-21T13:57:07;8.93;;;6.90;;
22780;SDS011;11557;50.884;4.322;2023-04-21T13:59:33;7.05;;;6.35;;
22780;SDS011;11557;50.884;4.322;2023-04-21T14:01:59;7.45;;;6.72;;
22780;SDS011;11557;50.884;4.322;2023-04-21T14:04:25;7.97;;;6.28;;
22780;SDS011;11557;50.884;4.322;2023-04-21T14:06:50;8.05;;;5.65;;
22780;SDS011;11557;50.884;4.322;2023-04-21T14:09:16;6.75;;;5.50;;
22780;SDS011;11557;50.884;4.322;2023-04-21T14:11:42;10.38;;;5.60;;
22780;SDS011;11557;50.884;4.322;2023-04-21T14:14:08;5.68;;;5.00;;
22780;SDS011;11557;50.884;4.322;2023-04-21T14:16:34;4.75;;;4.25;;
22780;SDS011;11557;50.884;4.322;2023-04-21T14:19:00;4.78;;;3.95;;
22780;SDS011;11557;50.884;4.322;2023-04-21T14:21:25;7.85;;;4.43;;
22780;SDS011;11557;50.884;4.322;2023-04-21T14:23:51;4.63;;;4.13;;
22780;SDS011;11557;50.884;4.322;2023-04-21T14:26:17;4.25;;;3.60;;
22780;SDS011;11557;50.884;4.322;2023-04-21T14:28:42;5.25;;;4.20;;
22780;SDS011;11557;50.884;4.322;2023-04-21T14:31:08;7.57;;;4.53;;
22780;SDS011;11557;50.884;4.322;2023-04-21T14:33:34;5.30;;;4.57;;
22780;SDS011;11557;50.884;4.322;2023-04-21T14:36:00;5.15;;;4.18;;
22780;SDS011;11557;50.884;4.322;2023-04-21T14:38:26;7.43;;;5.18;;
22780;SDS011;11557;50.884;4.322;2023-04-21T14:40:53;5.03;;;4.53;;
22780;SDS011;11557;50.884;4.322;2023-04-21T14:43:19;5.18;;;4.72;;
22780;SDS011;11557;50.884;4.322;2023-04-21T14:45:46;7.15;;;4.93;;
22780;SDS011;11557;50.884;4.322;2023-04-21T14:48:12;5.75;;;4.80;;